Time;durP1;ratioP1;P1;durP2;ratioP2;P2;SDS_P1;SDS_P2;PMS_P1;PMS_P2;Temp;Humidity;BMP_temperature;BMP_pressure;BME280_temperature;BME280_humidity;BME280_pressure;Samples;Min_cycle;Max_cycle;Signal;HPM_P1;HPM_P2
2021/12/16 00:07:10;;;;;;;20.38;15.52;;;;;;;8.77;92.27;101125.47;5001466;28;20198;-76
2021/12/16 00:09:47;;;;;;;18.83;13.93;;;;;;;8.84;92.41;101128.88;5031665;28;20186;-75
2021/12/16 00:29:18;;;;;;;18.23;14.20;;;;;;;8.86;91.18;101137.75;5051463;28;20189;-74
2021/12/16 00:31:52;;;;;;;18.85;15.25;;;;;;;8.66;92.40;101132.03;5034410;28;20375;-74
2021/12/16 00:34:20;;;;;;;19.85;16.35;;;;;;;8.82;92.56;101141.47;5031620;28;20193;-76
2021/12/16 00:36:50;;;;;;;20.95;16.00;;;;;;;8.86;91.78;101131.50;5031900;28;20293;-76
2021/12/16 00:39:21;;;;;;;15.88;14.18;;;;;;;8.92;90.76;101128.66;5031519;28;20242;-75
2021/12/16 00:41:52;;;;;;;17.90;15.05;;;;;;;8.62;92.15;101131.25;5031742;28;20552;-75
2021/12/16 00:44:47;;;;;;;19.05;15.75;;;;;;;8.84;91.55;101128.88;5031521;28;20189;-74
2021/12/16 00:47:26;;;;;;;17.60;14.38;;;;;;;8.90;90.73;101127.81;5031446;28;20267;-75
2021/12/16 00:50:04;;;;;;;18.92;15.27;;;;;;;8.82;91.10;101130.72;5034838;28;20239;-74
2021/12/16 00:55:27;;;;;;;17.80;15.25;;;;;;;8.64;92.00;101125.81;5051053;28;20190;-76
2021/12/16 00:57:54;;;;;;;20.27;14.73;;;;;;;8.82;91.61;101136.09;5050980;28;20273;-75
2021/12/16 01:00:25;;;;;;;17.13;13.68;;;;;;;8.65;91.82;101124.91;5052795;28;20292;-74
2021/12/16 01:03:05;;;;;;;19.13;15.13;;;;;;;8.51;93.34;101127.94;5055261;28;20209;-75
2021/12/16 01:08:50;;;;;;;16.73;14.20;;;;;;;8.77;91.86;101144.28;5054722;28;20239;-74
2021/12/16 01:33:46;;;;;;;17.60;14.50;;;;;;;8.58;93.30;101144.78;5009195;28;20591;-74
2021/12/16 01:36:27;;;;;;;20.38;15.93;;;;;;;8.62;92.57;101154.53;5034892;28;20187;-77
2021/12/16 01:50:19;;;;;;;25.25;17.00;;;;;;;8.42;93.37;101163.97;5033254;28;20197;-75
2021/12/16 01:55:41;;;;;;;22.92;18.40;;;;;;;8.52;93.40;101160.13;5049878;28;20275;-75
2021/12/16 01:58:14;;;;;;;23.88;17.52;;;;;;;8.38;94.62;101162.22;5054505;28;20191;-75
2021/12/16 02:00:56;;;;;;;25.40;19.48;;;;;;;8.54;93.27;101163.63;5054649;28;20593;-76
2021/12/16 02:03:36;;;;;;;26.40;20.27;;;;;;;8.43;93.92;101170.19;5053981;28;20216;-76
2021/12/16 02:06:09;;;;;;;23.40;18.65;;;;;;;8.41;94.17;101166.66;5054392;28;20201;-76
2021/12/16 02:08:38;;;;;;;26.48;19.20;;;;;;;8.53;93.57;101161.88;5052460;28;20187;-74
2021/12/16 02:11:19;;;;;;;21.60;17.65;;;;;;;8.63;92.40;101167.03;5053975;28;20190;-76
2021/12/16 02:27:49;;;;;;;19.95;16.75;;;;;;;8.69;92.80;101161.50;5053756;28;20541;-76
2021/12/16 02:33:38;;;;;;;25.15;18.27;;;;;;;8.68;92.74;101163.31;5048823;28;20175;-75
2021/12/16 02:36:23;;;;;;;23.15;17.55;;;;;;;8.63;92.59;101161.66;5033465;28;20269;-76
2021/12/16 02:38:54;;;;;;;22.98;17.20;;;;;;;8.68;92.71;101155.25;5033492;28;20604;-75
2021/12/16 02:41:22;;;;;;;21.10;16.00;;;;;;;8.76;92.47;101168.47;5033643;28;20629;-76
2021/12/16 02:44:18;;;;;;;21.80;17.33;;;;;;;8.44;93.53;101159.44;5033271;28;20281;-75
2021/12/16 02:49:31;;;;;;;23.35;16.95;;;;;;;8.42;95.27;101153.22;5048270;28;20205;-75
2021/12/16 02:51:58;;;;;;;24.20;17.38;;;;;;;8.31;95.55;101147.19;5053411;28;20201;-75
2021/12/16 02:54:27;;;;;;;23.13;17.48;;;;;;;8.45;94.95;101136.16;5053353;28;20192;-75
2021/12/16 02:56:54;;;;;;;21.27;16.77;;;;;;;8.58;94.06;101139.41;5053290;28;20644;-74
2021/12/16 02:59:26;;;;;;;24.50;16.42;;;;;;;8.36;94.05;101145.28;5037090;28;20201;-76
2021/12/16 03:01:55;;;;;;;21.05;17.52;;;;;;;8.35;95.55;101151.56;5033270;28;20211;-76
2021/12/16 03:04:28;;;;;;;22.27;16.50;;;;;;;8.63;94.15;101134.81;5034247;28;20202;-75
2021/12/16 03:06:57;;;;;;;24.35;16.90;;;;;;;8.66;93.65;101146.38;5033012;28;20637;-75
2021/12/16 03:09:58;;;;;;;18.73;15.57;;;;;;;8.54;92.64;101147.53;5032994;28;20183;-76
2021/12/16 03:12:50;;;;;;;21.75;18.10;;;;;;;8.60;93.43;101148.31;5032708;28;20727;-75
2021/12/16 03:15:30;;;;;;;19.17;15.90;;;;;;;8.56;92.99;101145.69;5033087;28;20210;-74
2021/12/16 03:18:04;;;;;;;23.08;17.85;;;;;;;8.72;91.88;101148.88;5038650;28;20704;-76
2021/12/16 03:20:39;;;;;;;27.73;17.92;;;;;;;8.39;93.67;101155.03;5052916;28;20190;-75
2021/12/16 03:23:22;;;;;;;26.42;19.15;;;;;;;8.40;94.55;101155.06;5050177;28;20228;-75
2021/12/16 03:26:07;;;;;;;21.98;17.77;;;;;;;8.30;94.01;101149.00;5052501;28;20521;-74
2021/12/16 03:31:49;;;;;;;22.15;17.27;;;;;;;8.39;94.42;101141.63;5150982;27;20508;-74
2021/12/16 03:34:35;;;;;;;21.60;17.60;;;;;;;8.29;94.05;101149.03;5151118;27;20285;-75
2021/12/16 03:37:18;;;;;;;25.58;17.60;;;;;;;8.44;94.13;101143.31;5148357;27;20183;-76
2021/12/16 03:39:48;;;;;;;25.23;17.67;;;;;;;8.51;93.59;101147.63;5151059;27;20216;-75
2021/12/16 03:42:18;;;;;;;23.50;18.48;;;;;;;8.31;94.47;101144.50;5150562;27;20213;-74
2021/12/16 03:44:56;;;;;;;21.17;17.80;;;;;;;8.37;94.11;101136.31;5143643;27;20191;-75
2021/12/16 03:47:33;;;;;;;20.48;16.23;;;;;;;8.27;94.56;101149.06;5130053;27;20545;-74
2021/12/16 03:50:02;;;;;;;22.15;17.27;;;;;;;8.14;95.49;101135.06;5129710;27;20211;-74
2021/12/16 03:52:29;;;;;;;23.92;18.90;;;;;;;8.28;95.41;101142.78;5129718;27;20187;-74
2021/12/16 03:54:57;;;;;;;23.95;18.65;;;;;;;8.38;93.93;101155.97;5150206;27;20206;-75
2021/12/16 03:57:27;;;;;;;22.88;18.63;;;;;;;8.23;94.53;101157.22;5150537;27;20218;-75
2021/12/16 03:59:54;;;;;;;25.10;19.00;;;;;;;8.36;94.29;101156.88;5150189;27;20281;-75
2021/12/16 04:02:25;;;;;;;24.67;18.15;;;;;;;8.40;94.09;101156.81;5150510;27;20192;-74
2021/12/16 04:04:54;;;;;;;21.20;17.35;;;;;;;8.38;93.78;101162.22;5150001;27;20189;-76
2021/12/16 04:07:23;;;;;;;24.35;19.50;;;;;;;8.44;93.41;101161.25;5133485;27;20283;-74
2021/12/16 04:09:51;;;;;;;24.92;19.17;;;;;;;8.53;93.08;101163.69;5129393;28;20208;-76
2021/12/16 04:12:20;;;;;;;20.75;16.85;;;;;;;8.47;92.92;101163.84;5129498;28;20290;-74
2021/12/16 04:14:50;;;;;;;22.95;17.80;;;;;;;8.52;92.92;101165.50;5130007;27;20190;-74
2021/12/16 04:17:19;;;;;;;24.55;17.67;;;;;;;8.34;93.24;101166.81;5129555;27;20188;-75
2021/12/16 04:19:46;;;;;;;21.63;16.85;;;;;;;8.29;94.32;101160.63;5129051;27;20206;-77
2021/12/16 04:22:17;;;;;;;24.88;18.80;;;;;;;8.38;94.28;101159.53;5129490;27;20180;-74
2021/12/16 04:24:47;;;;;;;23.92;18.15;;;;;;;8.30;94.95;101164.22;5129376;28;20222;-74
2021/12/16 04:27:16;;;;;;;24.20;18.05;;;;;;;8.41;94.06;101172.94;5128922;27;20196;-76
2021/12/16 04:29:43;;;;;;;21.90;17.15;;;;;;;8.32;94.32;101165.03;5138302;27;20223;-74
2021/12/16 04:32:10;;;;;;;22.15;17.90;;;;;;;8.40;94.16;101170.25;5147946;27;20209;-75
2021/12/16 04:34:37;;;;;;;21.20;17.92;;;;;;;8.43;93.60;101168.38;5149760;27;20199;-74
2021/12/16 04:37:05;;;;;;;25.90;17.73;;;;;;;8.48;93.46;101174.56;5149764;27;20201;-76
2021/12/16 04:39:37;;;;;;;24.05;18.35;;;;;;;8.51;92.63;101171.78;5131179;27;20191;-74
2021/12/16 04:42:05;;;;;;;25.33;18.10;;;;;;;8.46;92.81;101175.50;5140047;27;20199;-75
2021/12/16 04:44:33;;;;;;;23.33;19.70;;;;;;;8.31;93.88;101166.84;5133496;27;20206;-74
2021/12/16 04:47:01;;;;;;;25.23;17.98;;;;;;;8.51;92.86;101174.47;5135794;27;20644;-74
2021/12/16 04:49:31;;;;;;;22.40;19.38;;;;;;;8.30;93.60;101169.59;5134451;27;20222;-75
2021/12/16 04:52:00;;;;;;;23.95;18.35;;;;;;;8.30;94.06;101174.97;5135687;27;20183;-75
2021/12/16 04:54:29;;;;;;;20.98;17.00;;;;;;;8.29;94.01;101181.22;5135534;27;20199;-75
2021/12/16 04:56:59;;;;;;;23.40;17.65;;;;;;;8.44;93.09;101177.34;5135166;27;20192;-74
2021/12/16 04:59:27;;;;;;;23.40;17.65;;;;;;;8.37;93.28;101179.25;5135298;27;20209;-74
2021/12/16 05:01:58;;;;;;;24.67;19.05;;;;;;;8.31;93.77;101176.72;5135130;27;20290;-74
2021/12/16 05:04:25;;;;;;;19.55;17.20;;;;;;;8.35;93.72;101181.97;5134695;27;20194;-74
2021/12/16 05:06:52;;;;;;;23.55;18.55;;;;;;;8.32;93.87;101173.09;5135730;27;20194;-75
2021/12/16 05:09:52;;;;;;;24.25;18.52;;;;;;;8.42;93.62;101185.44;5135509;27;20195;-75
2021/12/16 05:12:15;;;;;;;26.95;18.25;;;;;;;8.47;93.13;101183.50;5134830;27;20203;-75
2021/12/16 05:14:43;;;;;;;25.52;18.30;;;;;;;8.49;92.62;101187.03;5132933;27;20191;-74
2021/12/16 05:17:22;;;;;;;23.88;17.67;;;;;;;8.49;92.61;101186.16;5134901;27;20214;-74
2021/12/16 05:19:51;;;;;;;23.48;17.52;;;;;;;8.64;91.55;101190.25;5134998;27;20188;-74
2021/12/16 05:25:01;;;;;;;25.75;19.42;;;;;;;8.41;93.31;101183.69;5134608;27;20187;-74
2021/12/16 05:27:29;;;;;;;27.27;18.92;;;;;;;8.48;93.67;101190.66;5134385;27;20184;-74
2021/12/16 05:29:56;;;;;;;22.88;17.25;;;;;;;8.61;92.87;101183.16;5132543;27;20222;-74
2021/12/16 05:32:23;;;;;;;25.08;18.20;;;;;;;8.61;92.21;101187.66;5128162;27;20275;-74
2021/12/16 05:34:50;;;;;;;25.85;18.10;;;;;;;8.55;92.62;101196.78;5120726;27;20195;-74
2021/12/16 05:37:16;;;;;;;26.15;18.15;;;;;;;8.27;94.26;101192.00;5134197;27;20202;-74
2021/12/16 05:39:43;;;;;;;21.98;17.88;;;;;;;8.33;94.60;101202.59;5132002;27;20285;-73
2021/12/16 05:42:10;;;;;;;27.88;19.83;;;;;;;8.34;93.99;101208.84;5134651;27;20184;-74
2021/12/16 05:44:38;;;;;;;25.08;19.33;;;;;;;8.33;94.83;101205.28;5134409;27;20210;-74
2021/12/16 05:47:06;;;;;;;25.20;17.80;;;;;;;8.30;94.77;101215.22;5134216;27;20286;-74
2021/12/16 05:49:33;;;;;;;26.52;18.80;;;;;;;8.03;96.74;101219.41;5134209;27;20205;-75
2021/12/16 05:51:59;;;;;;;28.95;20.08;;;;;;;8.20;96.99;101219.03;5134058;27;20202;-75
2021/12/16 05:54:26;;;;;;;28.90;19.60;;;;;;;8.14;96.71;101220.06;5132999;27;20221;-75
2021/12/16 05:56:53;;;;;;;26.27;20.50;;;;;;;8.12;97.08;101216.53;5146668;27;20194;-75
2021/12/16 05:59:20;;;;;;;25.95;20.45;;;;;;;8.28;97.18;101225.09;5134434;27;20184;-76
2021/12/16 06:01:49;;;;;;;27.58;19.33;;;;;;;8.37;96.04;101227.56;5134200;27;20206;-75
2021/12/16 06:04:16;;;;;;;26.17;20.38;;;;;;;8.41;95.34;101225.72;5115191;27;20314;-73
2021/12/16 06:06:43;;;;;;;24.38;19.42;;;;;;;8.32;94.84;101225.00;5129185;27;20195;-74
2021/12/16 06:09:11;;;;;;;26.40;19.08;;;;;;;8.11;96.65;101230.84;5148120;27;20230;-75
2021/12/16 06:11:41;;;;;;;27.48;20.40;;;;;;;8.21;97.59;101228.81;5133811;27;20551;-74
2021/12/16 06:14:17;;;;;;;27.58;20.50;;;;;;;8.32;95.93;101237.50;5134842;27;20268;-75
2021/12/16 06:22:48;;;;;;;24.10;18.58;;;;;;;8.00;98.96;101224.81;5115872;27;20197;-75
2021/12/16 06:28:06;;;;;;;25.50;18.67;;;;;;;8.08;99.64;101236.28;5112308;28;20182;-75
2021/12/16 06:30:35;;;;;;;25.83;21.27;;;;;;;8.02;100.00;101228.34;5119147;27;20340;-75
2021/12/16 06:33:02;;;;;;;24.70;19.38;;;;;;;8.30;98.84;101231.31;5122836;27;20242;-74
2021/12/16 06:35:31;;;;;;;24.70;20.23;;;;;;;8.05;99.59;101245.28;5132974;27;20199;-75
2021/12/16 06:37:58;;;;;;;26.92;19.67;;;;;;;8.09;100.00;101241.59;5132842;27;20556;-76
2021/12/16 06:40:25;;;;;;;26.60;20.88;;;;;;;8.27;98.83;101231.38;5133005;27;20291;-75
2021/12/16 06:42:54;;;;;;;35.28;24.67;;;;;;;8.44;97.84;101226.53;5132843;27;20186;-75
2021/12/16 06:45:26;;;;;;;26.20;18.65;;;;;;;8.50;96.42;101234.47;5132506;27;20305;-76
2021/12/16 06:47:57;;;;;;;25.17;20.27;;;;;;;8.63;95.26;101221.59;5138744;27;20192;-76
2021/12/16 06:50:31;;;;;;;28.38;20.08;;;;;;;8.79;92.78;101230.16;5120709;27;20206;-75
2021/12/16 06:53:02;;;;;;;22.52;19.25;;;;;;;8.54;94.35;101220.03;5111903;28;20642;-77
2021/12/16 06:55:36;;;;;;;26.45;19.17;;;;;;;8.58;94.99;101217.28;5111265;28;20222;-76
2021/12/16 06:58:13;;;;;;;22.23;18.50;;;;;;;8.71;93.75;101225.00;5111921;28;20236;-76
2021/12/16 07:00:45;;;;;;;28.15;21.13;;;;;;;8.73;92.69;101227.66;5112133;28;20187;-75
2021/12/16 07:03:19;;;;;;;28.83;21.40;;;;;;;8.78;93.03;101223.03;5112138;28;20270;-76
2021/12/16 07:05:49;;;;;;;27.60;19.23;;;;;;;8.65;92.62;101216.22;5111633;28;20282;-76
2021/12/16 07:08:18;;;;;;;29.05;20.17;;;;;;;8.55;93.43;101219.13;5111453;28;20206;-76
2021/12/16 07:10:46;;;;;;;26.20;20.63;;;;;;;8.62;93.87;101225.22;5112084;28;20330;-76
2021/12/16 07:13:18;;;;;;;29.38;21.08;;;;;;;8.69;93.12;101225.97;5112029;28;20646;-76
2021/12/16 07:15:46;;;;;;;26.02;20.45;;;;;;;8.81;92.83;101236.41;5112136;28;20213;-75
2021/12/16 07:18:12;;;;;;;28.88;21.02;;;;;;;8.83;92.18;101226.50;5111995;28;20270;-75
2021/12/16 07:20:39;;;;;;;27.08;20.83;;;;;;;8.81;92.12;101244.44;5111834;28;20629;-75
2021/12/16 07:23:08;;;;;;;27.40;21.23;;;;;;;8.81;91.99;101243.56;5111631;28;20202;-75
2021/12/16 07:25:36;;;;;;;23.83;21.33;;;;;;;8.79;91.55;101242.72;5111766;28;20598;-75
2021/12/16 07:28:07;;;;;;;25.15;19.88;;;;;;;8.76;91.79;101251.75;5111559;28;20195;-75
2021/12/16 07:30:35;;;;;;;27.15;19.70;;;;;;;8.67;92.90;101255.53;5110906;28;20339;-75
2021/12/16 07:33:02;;;;;;;24.95;18.23;;;;;;;8.79;92.72;101250.78;5111403;28;20283;-74
2021/12/16 07:35:29;;;;;;;30.73;21.60;;;;;;;8.74;92.71;101256.28;5111398;28;20221;-75
2021/12/16 07:37:56;;;;;;;26.52;21.73;;;;;;;8.82;92.27;101251.59;5111614;28;20614;-74
2021/12/16 07:40:26;;;;;;;27.40;20.35;;;;;;;8.65;93.17;101268.09;5111557;28;20187;-75
2021/12/16 07:43:19;;;;;;;30.58;20.35;;;;;;;8.66;93.64;101279.72;5111676;28;20303;-75
2021/12/16 07:45:48;;;;;;;28.35;19.38;;;;;;;8.54;93.96;101279.09;5111764;28;20770;-75
2021/12/16 07:48:17;;;;;;;23.92;18.23;;;;;;;8.47;94.67;101290.03;5111592;28;20525;-75
2021/12/16 07:50:46;;;;;;;31.65;22.77;;;;;;;8.34;96.42;101298.31;5111358;28;20215;-75
2021/12/16 07:53:13;;;;;;;32.28;27.77;;;;;;;8.48;95.96;101292.69;5111140;28;20282;-74
2021/12/16 07:55:43;;;;;;;26.55;22.75;;;;;;;8.56;95.38;101297.88;5111522;28;20733;-75
2021/12/16 07:58:11;;;;;;;28.88;22.55;;;;;;;8.12;96.97;101303.25;5111420;28;20557;-75
2021/12/16 08:00:39;;;;;;;35.25;24.83;;;;;;;8.32;97.68;101310.91;5111441;28;20632;-75
2021/12/16 08:03:09;;;;;;;25.33;20.40;;;;;;;8.43;97.20;101301.75;5111167;28;20206;-75
2021/12/16 08:05:40;;;;;;;26.92;21.20;;;;;;;8.15;98.16;101311.22;5111140;28;20207;-75
2021/12/16 08:08:07;;;;;;;27.70;20.65;;;;;;;8.27;97.93;101310.09;5111574;28;20188;-75
2021/12/16 08:10:34;;;;;;;27.83;21.73;;;;;;;8.38;97.68;101312.53;5111152;28;20755;-75
2021/12/16 08:13:01;;;;;;;26.02;20.40;;;;;;;8.32;97.30;101307.28;5111435;28;20184;-75
2021/12/16 08:15:29;;;;;;;27.33;19.73;;;;;;;8.21;98.79;101312.00;5110882;28;20200;-75
2021/12/16 08:17:56;;;;;;;25.40;19.13;;;;;;;8.55;96.13;101314.91;5114549;28;20199;-74
2021/12/16 08:20:23;;;;;;;28.27;19.83;;;;;;;8.53;95.87;101317.63;5115096;28;20526;-76
2021/12/16 08:22:55;;;;;;;25.52;19.23;;;;;;;8.36;96.52;101319.75;5114879;28;20181;-76
2021/12/16 08:25:24;;;;;;;28.75;21.02;;;;;;;8.53;96.23;101320.31;5114789;28;20283;-75
2021/12/16 08:27:52;;;;;;;26.80;18.88;;;;;;;8.89;93.76;101319.50;5114618;28;20210;-75
2021/12/16 08:30:21;;;;;;;26.83;20.08;;;;;;;9.03;91.99;101319.16;5114309;28;20235;-76
2021/12/16 08:32:49;;;;;;;32.22;22.88;;;;;;;8.84;92.85;101311.56;5114602;28;20677;-76
2021/12/16 08:35:16;;;;;;;26.48;19.40;;;;;;;8.80;93.21;101325.09;5114613;28;20702;-76
2021/12/16 08:37:43;;;;;;;31.42;20.13;;;;;;;8.61;94.09;101317.44;5114628;28;20206;-74
2021/12/16 08:40:13;;;;;;;25.95;21.00;;;;;;;8.62;94.42;101327.28;5114767;28;20654;-75
2021/12/16 08:42:40;;;;;;;29.88;20.13;;;;;;;8.80;94.51;101330.47;5114631;28;20270;-74
2021/12/16 08:45:09;;;;;;;26.02;19.50;;;;;;;9.03;92.40;101332.59;5114436;28;20206;-76
2021/12/16 08:47:36;;;;;;;27.52;19.88;;;;;;;9.00;92.40;101333.56;5114488;28;20184;-75
2021/12/16 08:50:06;;;;;;;28.52;20.85;;;;;;;8.90;92.52;101332.88;5114205;28;20209;-76
2021/12/16 08:52:33;;;;;;;29.67;21.30;;;;;;;9.05;92.40;101339.69;5114683;28;20205;-76
2021/12/16 08:55:00;;;;;;;26.52;19.75;;;;;;;9.04;91.85;101339.72;5114693;28;20220;-76
2021/12/16 08:57:29;;;;;;;31.42;20.92;;;;;;;9.15;90.90;101348.41;5114097;28;20200;-76
2021/12/16 08:59:56;;;;;;;27.00;20.65;;;;;;;9.38;90.17;101339.78;5114204;28;20212;-76
2021/12/16 09:02:23;;;;;;;31.92;22.15;;;;;;;9.15;90.20;101340.34;5114283;28;20649;-75
2021/12/16 09:04:51;;;;;;;29.88;21.58;;;;;;;9.38;90.54;101339.78;5114197;28;20626;-75
2021/12/16 09:07:19;;;;;;;26.45;21.30;;;;;;;9.65;88.81;101343.53;5114203;28;20184;-75
2021/12/16 09:09:47;;;;;;;29.52;21.08;;;;;;;9.64;87.69;101346.31;5114651;28;20770;-75
2021/12/16 09:15:03;;;;;;;29.98;20.75;;;;;;;9.58;87.68;101345.50;5104727;27;20196;-75
2021/12/16 09:17:30;;;;;;;27.75;20.13;;;;;;;9.80;85.82;101351.22;5114031;28;20206;-75
2021/12/16 09:19:57;;;;;;;28.75;21.88;;;;;;;9.93;85.18;101358.97;5114127;28;20210;-74
2021/12/16 09:22:27;;;;;;;30.83;21.50;;;;;;;9.87;86.12;101365.38;5113823;28;20180;-76
2021/12/16 09:24:56;;;;;;;31.38;20.30;;;;;;;9.87;85.72;101370.75;5114039;28;20180;-74
2021/12/16 09:27:23;;;;;;;24.88;18.23;;;;;;;9.67;86.85;101367.72;5113786;28;20200;-76
2021/12/16 09:29:50;;;;;;;25.98;19.40;;;;;;;9.49;86.87;101374.47;5113472;28;20242;-74
2021/12/16 09:32:18;;;;;;;26.00;20.10;;;;;;;9.65;87.23;101375.81;5113797;28;20713;-75
2021/12/16 09:34:46;;;;;;;26.60;20.52;;;;;;;9.48;88.07;101367.34;5113492;28;20630;-76
2021/12/16 09:37:13;;;;;;;27.25;20.45;;;;;;;9.47;88.18;101365.53;5113662;28;20619;-76
2021/12/16 09:39:42;;;;;;;28.08;21.77;;;;;;;9.59;88.00;101373.31;5113416;28;20214;-75
2021/12/16 09:42:09;;;;;;;30.95;22.42;;;;;;;9.69;87.68;101380.22;5113748;28;20192;-75
2021/12/16 09:44:38;;;;;;;26.20;19.52;;;;;;;9.56;88.56;101376.06;5113346;28;20200;-76
2021/12/16 09:47:07;;;;;;;31.20;21.63;;;;;;;9.82;86.61;101383.47;5113372;28;20183;-75
2021/12/16 09:49:35;;;;;;;27.65;19.88;;;;;;;9.86;86.41;101378.88;5113636;28;20555;-75
2021/12/16 09:52:02;;;;;;;28.98;21.42;;;;;;;9.87;85.80;101378.84;5112748;28;20227;-75
2021/12/16 09:54:32;;;;;;;36.47;21.50;;;;;;;9.91;85.53;101376.97;5113314;28;20210;-75
2021/12/16 09:57:02;;;;;;;27.98;20.08;;;;;;;9.88;85.39;101382.41;5112700;28;20275;-75
2021/12/16 09:59:32;;;;;;;27.27;20.45;;;;;;;10.17;84.41;101373.53;5113078;28;20199;-76
2021/12/16 10:02:00;;;;;;;30.10;23.27;;;;;;;10.32;83.42;101377.66;5112844;28;20267;-75
2021/12/16 10:04:31;;;;;;;28.15;21.65;;;;;;;10.32;82.92;101377.66;5112814;28;20536;-75
2021/12/16 10:07:02;;;;;;;35.92;22.27;;;;;;;10.55;82.42;101380.53;5112822;28;20180;-75
2021/12/16 10:09:29;;;;;;;29.58;21.45;;;;;;;10.52;81.60;101375.25;5112890;28;20504;-75
2021/12/16 10:11:59;;;;;;;29.90;20.05;;;;;;;10.19;82.24;101369.00;5112419;28;20288;-76
2021/12/16 10:14:45;;;;;;;31.70;21.65;;;;;;;10.36;82.14;101376.63;5113159;28;20235;-76
2021/12/16 10:17:28;;;;;;;31.23;21.65;;;;;;;10.48;81.03;101378.09;5112768;28;20192;-75
2021/12/16 10:19:57;;;;;;;26.55;21.17;;;;;;;10.33;82.00;101384.78;5113031;28;20688;-76
2021/12/16 10:22:31;;;;;;;27.70;21.92;;;;;;;10.58;81.34;101384.94;5112893;28;20184;-74
2021/12/16 10:25:17;;;;;;;27.70;21.42;;;;;;;10.55;79.85;101391.31;5112627;28;20625;-75
2021/12/16 10:27:57;;;;;;;33.15;21.75;;;;;;;10.58;79.59;101380.47;5112270;28;20207;-75
2021/12/16 10:30:27;;;;;;;27.58;21.10;;;;;;;10.83;78.01;101383.28;5112351;28;20235;-76
2021/12/16 10:32:54;;;;;;;31.08;22.45;;;;;;;11.06;76.98;101377.19;5112009;28;20231;-73
2021/12/16 10:35:28;;;;;;;29.85;22.70;;;;;;;11.16;76.00;101376.88;5112551;28;20201;-76
2021/12/16 10:38:00;;;;;;;25.65;20.17;;;;;;;10.90;77.33;101375.91;5112389;28;20206;-76
2021/12/16 10:40:35;;;;;;;26.85;20.48;;;;;;;11.02;76.50;101375.50;5111715;28;20270;-75
2021/12/16 10:43:05;;;;;;;32.20;22.33;;;;;;;11.19;76.00;101374.97;5111792;28;20275;-75
2021/12/16 10:45:39;;;;;;;28.77;19.75;;;;;;;11.09;75.51;101375.31;5111346;28;20570;-75
2021/12/16 10:48:15;;;;;;;22.02;18.38;;;;;;;11.13;75.72;101368.91;5111763;28;20214;-75
2021/12/16 10:51:18;;;;;;;26.77;20.00;;;;;;;10.96;75.97;101375.69;5112100;28;20188;-75
2021/12/16 10:54:09;;;;;;;26.42;21.05;;;;;;;10.89;75.97;101376.81;5111323;28;20187;-74
2021/12/16 10:56:50;;;;;;;27.38;20.30;;;;;;;11.28;74.72;101376.47;5111753;28;20202;-74
2021/12/16 10:59:20;;;;;;;30.55;19.48;;;;;;;11.43;73.51;101367.88;5111844;28;20231;-76
2021/12/16 11:01:53;;;;;;;23.98;18.50;;;;;;;11.24;73.41;101378.41;5111943;28;20656;-76
2021/12/16 11:04:28;;;;;;;23.00;17.40;;;;;;;11.39;71.70;101379.69;5111834;28;20192;-75
2021/12/16 11:06:58;;;;;;;19.77;15.43;;;;;;;11.44;71.82;101372.34;5111731;28;20203;-76
2021/12/16 11:09:45;;;;;;;23.13;16.15;;;;;;;11.71;70.51;101374.16;5111775;28;20607;-74
2021/12/16 11:12:33;;;;;;;27.40;19.15;;;;;;;12.02;67.78;101371.28;5111261;28;20295;-76
2021/12/16 11:15:05;;;;;;;17.65;14.82;;;;;;;11.80;67.38;101365.72;5111762;28;20200;-76
2021/12/16 11:17:35;;;;;;;20.05;14.27;;;;;;;11.38;67.93;101363.59;5111626;28;20626;-75
2021/12/16 11:20:08;;;;;;;22.75;14.48;;;;;;;11.73;67.18;101370.47;5111261;28;20632;-75
2021/12/16 11:22:38;;;;;;;19.08;15.50;;;;;;;11.66;66.92;101366.22;5111228;28;20188;-75
2021/12/16 11:25:15;;;;;;;24.20;15.73;;;;;;;11.80;66.45;101369.34;5111610;28;20629;-76
2021/12/16 11:27:44;;;;;;;16.52;14.00;;;;;;;11.79;66.59;101363.97;5111287;28;20275;-75
2021/12/16 11:30:40;;;;;;;14.98;12.20;;;;;;;11.84;65.50;101365.56;5110598;28;20322;-76
2021/12/16 11:33:15;;;;;;;14.77;11.48;;;;;;;11.84;65.88;101351.19;5111363;28;20206;-76
2021/12/16 11:35:45;;;;;;;19.17;14.52;;;;;;;11.96;65.79;101364.31;5111797;28;20270;-74
2021/12/16 11:38:20;;;;;;;14.63;12.93;;;;;;;11.84;65.54;101360.16;5111612;28;20283;-75
2021/12/16 11:41:03;;;;;;;15.85;11.63;;;;;;;11.65;65.43;101354.53;5111604;28;20586;-75
2021/12/16 11:43:36;;;;;;;17.92;11.82;;;;;;;11.32;66.40;101359.25;5111369;28;20630;-75
2021/12/16 11:46:05;;;;;;;22.65;19.35;;;;;;;11.33;67.26;101358.34;5111446;28;20196;-75
2021/12/16 11:48:38;;;;;;;12.98;10.48;;;;;;;11.33;65.95;101347.56;5111114;28;20186;-75
2021/12/16 11:51:08;;;;;;;12.50;9.48;;;;;;;11.22;64.18;101356.00;5111475;28;20207;-76
2021/12/16 11:53:38;;;;;;;17.30;10.85;;;;;;;11.26;64.58;101354.06;5115626;28;20215;-74
2021/12/16 11:56:05;;;;;;;14.88;10.82;;;;;;;11.27;64.47;101343.22;5115455;28;20204;-75
2021/12/16 11:58:32;;;;;;;16.05;11.95;;;;;;;11.15;64.87;101345.47;5115179;28;20205;-75
2021/12/16 12:00:59;;;;;;;13.73;10.75;;;;;;;11.09;65.08;101341.16;5115092;28;20207;-74
2021/12/16 12:03:35;;;;;;;16.42;10.75;;;;;;;11.27;64.40;101339.66;5115138;28;20199;-74
2021/12/16 12:06:01;;;;;;;16.77;12.07;;;;;;;11.50;63.71;101338.88;5115151;28;20198;-73
2021/12/16 12:08:31;;;;;;;13.02;10.57;;;;;;;11.61;63.50;101335.81;5114926;28;20191;-75
2021/12/16 12:11:00;;;;;;;15.23;10.40;;;;;;;11.79;62.63;101342.38;5114949;28;20233;-76
2021/12/16 12:13:30;;;;;;;14.02;9.63;;;;;;;11.88;62.20;101352.88;5114940;28;20216;-75
2021/12/16 12:16:00;;;;;;;11.90;8.57;;;;;;;11.98;61.51;101346.19;5114995;28;20226;-75
2021/12/16 12:18:38;;;;;;;14.15;8.07;;;;;;;12.05;60.96;101347.78;5114845;28;20184;-75
2021/12/16 12:21:31;;;;;;;13.43;10.13;;;;;;;11.98;61.70;101346.19;5114998;28;20187;-75
2021/12/16 12:24:00;;;;;;;11.88;9.13;;;;;;;11.95;61.34;101335.53;5095927;28;20672;-75
2021/12/16 12:26:30;;;;;;;10.65;8.85;;;;;;;11.78;62.20;101341.50;5115197;28;20613;-75
2021/12/16 12:28:59;;;;;;;14.65;9.80;;;;;;;11.56;63.33;101338.69;5113822;28;20269;-76
2021/12/16 12:31:30;;;;;;;13.32;8.30;;;;;;;11.72;62.57;101338.16;5073851;28;20279;-76
2021/12/16 12:33:59;;;;;;;12.18;8.85;;;;;;;11.63;62.19;101348.31;5073757;28;20556;-76
2021/12/16 12:36:26;;;;;;;8.80;7.10;;;;;;;11.71;61.30;101348.03;5073911;28;20269;-75
2021/12/16 12:38:54;;;;;;;8.45;6.47;;;;;;;11.99;60.78;101344.41;5074028;28;20211;-75
2021/12/16 12:41:22;;;;;;;12.20;7.93;;;;;;;12.04;60.47;101343.28;5073325;28;20224;-75
2021/12/16 12:43:50;;;;;;;10.65;7.30;;;;;;;12.30;59.57;101350.44;5073544;28;20207;-75
2021/12/16 12:46:18;;;;;;;10.85;6.95;;;;;;;11.93;58.34;101333.81;5073596;28;20280;-76
2021/12/16 12:48:47;;;;;;;7.78;5.75;;;;;;;11.78;58.44;101333.41;5073008;28;20194;-75
2021/12/16 12:51:15;;;;;;;12.63;6.50;;;;;;;11.98;59.21;101334.53;5073641;28;20198;-75
2021/12/16 12:53:48;;;;;;;5.63;5.00;;;;;;;12.17;57.13;101341.03;5073603;28;20208;-75
2021/12/16 12:56:18;;;;;;;7.57;5.70;;;;;;;12.32;56.52;101339.56;5073469;28;20680;-76
2021/12/16 12:58:55;;;;;;;7.28;5.88;;;;;;;12.26;56.24;101335.28;5073781;28;20288;-75
2021/12/16 13:01:36;;;;;;;11.75;6.47;;;;;;;12.12;57.04;101332.22;5073377;28;20193;-75
2021/12/16 13:04:06;;;;;;;7.68;5.15;;;;;;;12.25;56.64;101335.34;5073243;28;20185;-75
2021/12/16 13:06:48;;;;;;;6.55;4.78;;;;;;;11.91;56.81;101328.47;5073876;28;20273;-76
2021/12/16 13:09:27;;;;;;;7.60;5.63;;;;;;;11.54;57.39;101326.19;5073307;28;20281;-75
2021/12/16 13:11:54;;;;;;;7.47;6.10;;;;;;;11.40;58.09;101327.53;5073334;28;20304;-75
2021/12/16 13:14:27;;;;;;;7.35;5.20;;;;;;;11.13;58.53;101329.34;5073228;28;20205;-76
2021/12/16 13:17:18;;;;;;;12.23;6.63;;;;;;;11.14;59.23;101324.81;5073573;28;20189;-76
2021/12/16 13:28:41;;;;;;;13.15;7.15;;;;;;;11.85;56.09;101324.16;5059601;28;20229;-76